createdAt,value
2017-11-07T00:01:17.923Z,101849.64
2017-11-07T00:03:50.106Z,101843.47
2017-11-07T00:06:16.924Z,101840.98
2017-11-07T00:08:44.625Z,101835.75
2017-11-07T00:11:16.973Z,101846.55
2017-11-07T00:13:49.063Z,101838.53
2017-11-07T00:16:21.176Z,101833.66
2017-11-07T00:18:48.208Z,101834.09
2017-11-07T00:21:17.976Z,101835.48
2017-11-07T00:23:44.873Z,101836.36
2017-11-07T00:26:12.256Z,101829.39
2017-11-07T00:28:39.324Z,101833.76
2017-11-07T00:31:12.383Z,101836.34
2017-11-07T00:33:45.012Z,101839.16
2017-11-07T00:36:12.847Z,101836.77
2017-11-07T00:38:39.675Z,101834.13
2017-11-07T00:41:12.557Z,101835.58
2017-11-07T00:43:46.338Z,101825.20
2017-11-07T00:46:13.783Z,101823.48
2017-11-07T00:48:41.638Z,101833.48
2017-11-07T00:51:08.582Z,101825.66
2017-11-07T00:53:36.645Z,101822.19
2017-11-07T00:56:03.559Z,101820.49
2017-11-07T00:58:31.273Z,101817.38
2017-11-07T01:00:58.260Z,101810.88
2017-11-07T01:03:25.335Z,101808.72
2017-11-07T01:05:52.227Z,101803.54
2017-11-07T01:08:26.396Z,101800.02
2017-11-07T01:10:53.347Z,101799.35
2017-11-07T01:13:20.589Z,101802.63
2017-11-07T01:15:49.019Z,101800.03
2017-11-07T01:18:20.998Z,101798.30
2017-11-07T01:20:53.355Z,101793.09
2017-11-07T01:23:25.425Z,101799.13
2017-11-07T01:25:53.345Z,101789.59
2017-11-07T01:28:26.031Z,101787.47
2017-11-07T01:30:53.741Z,101788.75
2017-11-07T01:33:20.799Z,101789.53
2017-11-07T01:35:47.738Z,101790.02
2017-11-07T01:38:14.659Z,101784.41
2017-11-07T01:40:44.864Z,101779.66
2017-11-07T01:43:12.579Z,101781.42
2017-11-07T01:45:44.837Z,101782.28
2017-11-07T01:48:15.659Z,101775.72
2017-11-07T01:50:43.703Z,101783.08
2017-11-07T01:53:10.861Z,101787.85
2017-11-07T01:55:39.554Z,101780.45
2017-11-07T01:58:06.750Z,101774.39
2017-11-07T02:00:33.573Z,101778.71
2017-11-07T02:03:06.342Z,101780.48
2017-11-07T02:05:38.299Z,101780.05
2017-11-07T02:08:05.220Z,101779.82
2017-11-07T02:10:32.075Z,101777.31
2017-11-07T02:12:58.971Z,101777.34
2017-11-07T02:15:25.850Z,101780.34
2017-11-07T02:17:52.908Z,101772.53
2017-11-07T02:20:19.873Z,101776.88
2017-11-07T02:22:46.839Z,101773.34
2017-11-07T02:25:14.563Z,101765.95
2017-11-07T02:27:42.207Z,101765.94
2017-11-07T02:30:09.342Z,101765.98
2017-11-07T02:32:36.311Z,101764.23
2017-11-07T02:35:09.575Z,101756.36
2017-11-07T02:37:41.718Z,101758.85
2017-11-07T02:40:08.655Z,101759.27
2017-11-07T02:42:35.741Z,101753.75
2017-11-07T02:45:02.680Z,101755.08
2017-11-07T02:47:34.971Z,101752.84
2017-11-07T02:50:02.018Z,101745.86
2017-11-07T02:52:29.800Z,101750.88
2017-11-07T02:54:57.602Z,101747.06
2017-11-07T02:57:24.442Z,101735.84
2017-11-07T02:59:51.280Z,101739.16
2017-11-07T03:02:18.167Z,101735.62
2017-11-07T03:04:45.001Z,101734.94
2017-11-07T03:07:11.815Z,101741.63
2017-11-07T03:09:38.633Z,101741.30
2017-11-07T03:12:06.183Z,101741.30
2017-11-07T03:14:33.055Z,101745.26
2017-11-07T03:16:59.865Z,101739.21
2017-11-07T03:19:26.677Z,101744.86
2017-11-07T03:21:53.522Z,101738.71
2017-11-07T03:24:20.355Z,101734.73
2017-11-07T03:26:47.157Z,101735.52
2017-11-07T03:29:13.972Z,101721.47
2017-11-07T03:31:40.789Z,101725.97
2017-11-07T03:34:08.353Z,101714.34
2017-11-07T03:36:35.165Z,101718.28
2017-11-07T03:39:01.980Z,101716.44
2017-11-07T03:41:28.800Z,101710.29
2017-11-07T03:43:55.610Z,101710.66
2017-11-07T03:46:23.174Z,101713.25
2017-11-07T03:48:49.999Z,101706.08
2017-11-07T03:51:16.827Z,101709.78
2017-11-07T03:53:43.633Z,101703.42
2017-11-07T03:56:10.455Z,101703.95
2017-11-07T03:58:37.274Z,101700.38
2017-11-07T04:01:04.109Z,101707.41
2017-11-07T04:03:30.974Z,101708.64
2017-11-07T04:05:57.786Z,101710.88
2017-11-07T04:08:24.599Z,101707.25
2017-11-07T04:10:51.464Z,101712.79
2017-11-07T04:13:18.282Z,101709.34
2017-11-07T04:15:45.107Z,101705.61
2017-11-07T04:18:12.677Z,101705.94
2017-11-07T04:20:39.502Z,101708.47
2017-11-07T04:23:06.339Z,101712.11
2017-11-07T04:25:33.162Z,101706.87
2017-11-07T04:27:59.965Z,101708.08
2017-11-07T04:30:26.752Z,101696.98
2017-11-07T04:32:53.648Z,101701.22
2017-11-07T04:35:20.437Z,101700.75
2017-11-07T04:37:47.290Z,101704.11
2017-11-07T04:40:14.101Z,101697.47
2017-11-07T04:42:40.894Z,101695.92
2017-11-07T04:45:07.755Z,101698.92
2017-11-07T04:47:35.307Z,101697.16
2017-11-07T04:50:02.130Z,101695.63
2017-11-07T04:52:29.019Z,101696.00
2017-11-07T04:54:55.823Z,101705.01
2017-11-07T04:57:23.405Z,101699.27
2017-11-07T04:59:50.212Z,101701.54
2017-11-07T05:02:17.049Z,101706.03
2017-11-07T05:04:43.932Z,101702.72
2017-11-07T05:07:10.756Z,101705.34
2017-11-07T05:09:37.662Z,101701.70
2017-11-07T05:12:04.535Z,101703.20
2017-11-07T05:14:31.350Z,101699.82
2017-11-07T05:16:58.161Z,101697.53
2017-11-07T05:19:24.986Z,101695.83
2017-11-07T05:21:51.823Z,101698.70
2017-11-07T05:24:18.640Z,101693.73
2017-11-07T05:26:45.456Z,101705.51
2017-11-07T05:29:12.272Z,101708.72
2017-11-07T05:31:39.095Z,101709.53
2017-11-07T05:34:05.909Z,101705.05
2017-11-07T05:36:32.731Z,101705.88
2017-11-07T05:39:01.727Z,101704.04
2017-11-07T05:41:28.759Z,101698.36
2017-11-07T05:43:55.581Z,101706.95
2017-11-07T05:46:23.246Z,101710.58
2017-11-07T05:48:50.085Z,101705.64
2017-11-07T05:51:16.991Z,101694.74
2017-11-07T05:53:43.922Z,101696.26
2017-11-07T05:56:10.734Z,101698.58
2017-11-07T05:58:38.311Z,101695.77
2017-11-07T06:01:05.956Z,101698.16
2017-11-07T06:03:32.766Z,101695.88
2017-11-07T06:05:59.598Z,101709.20
2017-11-07T06:08:27.179Z,101705.78
2017-11-07T06:10:54.837Z,101697.86
2017-11-07T06:13:21.678Z,101693.41
2017-11-07T06:15:48.526Z,101702.09
2017-11-07T06:18:16.981Z,101702.05
2017-11-07T06:20:43.815Z,101700.59
2017-11-07T06:23:10.707Z,101702.31
2017-11-07T06:25:38.335Z,101701.70
2017-11-07T06:28:05.182Z,101702.95
2017-11-07T06:30:32.760Z,101698.44
2017-11-07T06:33:00.304Z,101700.02
2017-11-07T06:35:27.852Z,101699.36
2017-11-07T06:37:54.648Z,101702.28
2017-11-07T06:40:22.191Z,101699.98
2017-11-07T06:42:49.376Z,101700.86
2017-11-07T06:45:16.177Z,101700.17
2017-11-07T06:47:43.010Z,101687.95
2017-11-07T06:50:10.559Z,101687.49
2017-11-07T06:52:37.381Z,101688.79
2017-11-07T06:55:04.325Z,101682.55
2017-11-07T06:57:31.169Z,101681.57
2017-11-07T06:59:58.788Z,101685.66
2017-11-07T07:15:29.551Z,101671.05
2017-11-07T07:17:57.149Z,101671.09
2017-11-07T07:20:24.045Z,101670.22
2017-11-07T07:22:50.889Z,101664.94
2017-11-07T07:25:17.746Z,101661.06
2017-11-07T07:27:44.587Z,101658.44
2017-11-07T07:30:11.455Z,101659.29
2017-11-07T07:32:38.283Z,101659.71
2017-11-07T07:35:05.999Z,101659.73
2017-11-07T07:37:32.893Z,101656.27
2017-11-07T07:39:59.800Z,101662.80
2017-11-07T07:42:27.419Z,101658.84
2017-11-07T07:44:54.283Z,101657.56
2017-11-07T07:47:21.970Z,101658.45
2017-11-07T07:49:49.623Z,101661.05
2017-11-07T07:52:16.505Z,101658.42
2017-11-07T07:54:43.381Z,101659.26
2017-11-07T07:57:10.226Z,101661.41
2017-11-07T07:59:37.108Z,101655.69
2017-11-07T08:02:04.049Z,101659.59
2017-11-07T08:04:30.923Z,101657.80
2017-11-07T08:06:57.846Z,101656.48
2017-11-07T08:09:24.783Z,101656.91
2017-11-07T08:11:51.651Z,101659.05
2017-11-07T08:14:18.567Z,101656.47
2017-11-07T08:16:45.444Z,101653.45
2017-11-07T08:19:12.346Z,101650.34
2017-11-07T08:21:39.965Z,101649.87
2017-11-07T08:24:07.052Z,101645.94
2017-11-07T08:26:33.914Z,101651.55
2017-11-07T08:29:00.840Z,101646.33
2017-11-07T08:31:27.709Z,101648.69
2017-11-07T08:33:54.585Z,101646.63
2017-11-07T08:36:21.460Z,101644.77
2017-11-07T08:38:48.340Z,101650.94
2017-11-07T08:41:15.169Z,101648.77
2017-11-07T08:43:42.749Z,101641.38
2017-11-07T08:46:09.572Z,101638.53
2017-11-07T08:48:36.402Z,101643.31
2017-11-07T08:51:03.256Z,101637.89
2017-11-07T08:53:30.107Z,101633.30
2017-11-07T08:55:57.003Z,101636.77
2017-11-07T08:58:24.627Z,101634.28
2017-11-07T09:00:51.523Z,101629.08
2017-11-07T09:03:18.341Z,101626.42
2017-11-07T09:05:45.191Z,101625.11
2017-11-07T09:08:12.090Z,101631.59
2017-11-07T09:10:39.025Z,101627.79
2017-11-07T09:13:06.627Z,101625.16
2017-11-07T09:15:33.517Z,101623.89
2017-11-07T09:18:00.413Z,101616.61
2017-11-07T09:20:27.345Z,101617.64
2017-11-07T09:22:54.204Z,101623.91
2017-11-07T09:25:21.052Z,101623.52
2017-11-07T09:27:47.881Z,101622.33
2017-11-07T09:30:14.732Z,101618.02
2017-11-07T09:32:41.581Z,101626.64
2017-11-07T09:35:08.428Z,101613.40
2017-11-07T09:37:36.047Z,101617.25
2017-11-07T09:40:02.958Z,101610.93
2017-11-07T09:42:29.826Z,101610.56
2017-11-07T09:44:57.389Z,101613.34
2017-11-07T09:47:24.220Z,101607.34
2017-11-07T09:49:51.104Z,101606.44
2017-11-07T09:52:17.932Z,101612.98
2017-11-07T09:54:44.773Z,101611.00
2017-11-07T09:57:11.623Z,101610.18
2017-11-07T09:59:39.231Z,101609.82
2017-11-07T10:02:06.249Z,101597.45
2017-11-07T10:04:33.941Z,101600.71
2017-11-07T10:07:01.513Z,101601.05
2017-11-07T10:09:29.108Z,101585.44
2017-11-07T10:11:55.944Z,101578.11
2017-11-07T10:14:22.784Z,101570.92
2017-11-07T10:16:49.676Z,101571.49
2017-11-07T10:19:16.816Z,101560.37
2017-11-07T10:21:43.755Z,101557.75
2017-11-07T10:24:10.649Z,101550.52
2017-11-07T10:26:37.574Z,101547.08
2017-11-07T10:29:04.531Z,101535.20
2017-11-07T10:31:31.376Z,101528.47
2017-11-07T10:33:58.237Z,101522.20
2017-11-07T10:36:25.148Z,101524.13
2017-11-07T10:38:52.024Z,101515.95
2017-11-07T10:41:18.894Z,101513.54
2017-11-07T10:43:46.528Z,101505.71
2017-11-07T10:46:13.416Z,101503.52
2017-11-07T10:48:40.268Z,101500.70
2017-11-07T10:51:07.105Z,101494.37
2017-11-07T10:53:34.016Z,101492.42
2017-11-07T10:56:00.964Z,101493.03
2017-11-07T10:58:27.870Z,101490.97
2017-11-07T11:00:54.716Z,101490.66
2017-11-07T11:03:24.639Z,101475.70
2017-11-07T11:05:51.581Z,101466.91
2017-11-07T11:08:21.963Z,101469.26
2017-11-07T11:10:51.391Z,101459.74
2017-11-07T11:13:22.207Z,101456.38
2017-11-07T11:15:49.711Z,101452.45
2017-11-07T11:18:16.729Z,101444.98
2017-11-07T11:20:43.901Z,101437.94
2017-11-07T11:23:10.763Z,101436.52
2017-11-07T11:25:38.053Z,101430.12
2017-11-07T11:28:10.877Z,101437.51
2017-11-07T11:30:43.573Z,101435.92
2017-11-07T11:33:16.325Z,101434.73
2017-11-07T11:35:44.333Z,101430.02
2017-11-07T11:38:11.203Z,101425.81
2017-11-07T11:40:43.244Z,101424.16
2017-11-07T11:43:10.213Z,101421.43
2017-11-07T11:45:37.117Z,101417.38
2017-11-07T11:48:04.802Z,101415.88
2017-11-07T11:50:34.866Z,101406.72
2017-11-07T11:53:06.840Z,101403.73
2017-11-07T11:55:34.279Z,101404.95
2017-11-07T11:58:01.479Z,101390.91
2017-11-07T12:00:35.674Z,101395.16
2017-11-07T12:03:03.647Z,101384.90
2017-11-07T12:05:31.720Z,101386.04
2017-11-07T12:08:04.446Z,101386.03
2017-11-07T12:10:31.579Z,101380.95
2017-11-07T12:12:59.326Z,101370.23
2017-11-07T12:15:26.772Z,101369.98
2017-11-07T12:17:53.984Z,101368.98
2017-11-07T12:20:22.585Z,101361.88
2017-11-07T12:22:55.295Z,101357.81
2017-11-07T12:25:22.314Z,101353.05
2017-11-07T12:27:51.262Z,101346.13
2017-11-07T12:30:19.705Z,101336.66
2017-11-07T12:32:46.583Z,101336.30
2017-11-07T12:35:20.651Z,101333.02
2017-11-07T12:37:47.653Z,101339.06
2017-11-07T12:40:15.009Z,101332.92
2017-11-07T12:42:42.144Z,101324.70
2017-11-07T12:45:09.816Z,101327.16
2017-11-07T12:47:37.249Z,101326.11
2017-11-07T12:50:23.904Z,101328.78
2017-11-07T12:52:51.967Z,101320.14
2017-11-07T12:55:20.359Z,101323.28
2017-11-07T12:57:47.271Z,101325.83
2017-11-07T13:00:15.805Z,101322.77
2017-11-07T13:02:51.259Z,101327.48
2017-11-07T13:05:25.668Z,101325.02
2017-11-07T13:07:53.582Z,101327.16
2017-11-07T13:10:20.550Z,101324.33
2017-11-07T13:12:53.686Z,101326.71
2017-11-07T13:15:23.502Z,101328.85
2017-11-07T13:17:50.894Z,101322.59
2017-11-07T13:20:25.099Z,101323.70
2017-11-07T13:22:52.473Z,101320.09
2017-11-07T13:25:20.147Z,101317.19
2017-11-07T13:27:47.336Z,101317.69
2017-11-07T13:30:15.242Z,101310.67
2017-11-07T13:32:42.081Z,101301.89
2017-11-07T13:35:09.257Z,101305.03
2017-11-07T13:37:36.081Z,101300.58
2017-11-07T13:40:09.018Z,101300.78
2017-11-07T13:42:42.060Z,101306.22
2017-11-07T13:45:14.781Z,101301.77
2017-11-07T13:47:47.616Z,101298.08
2017-11-07T13:50:15.249Z,101293.25
2017-11-07T13:52:44.280Z,101290.13
2017-11-07T13:55:11.436Z,101288.76
2017-11-07T13:57:38.708Z,101275.29
2017-11-07T14:00:05.817Z,101273.70
2017-11-07T14:02:37.923Z,101273.03
2017-11-07T14:05:04.738Z,101275.30
2017-11-07T14:07:31.624Z,101268.09
2017-11-07T14:10:03.748Z,101268.83
2017-11-07T14:12:30.889Z,101260.93
2017-11-07T14:14:58.872Z,101263.59
2017-11-07T14:17:26.954Z,101264.13
2017-11-07T14:19:54.215Z,101266.64
2017-11-07T14:22:27.438Z,101255.23
2017-11-07T14:24:56.132Z,101250.91
2017-11-07T14:27:23.246Z,101249.35
2017-11-07T14:29:50.214Z,101249.09
2017-11-07T14:32:22.328Z,101247.16
2017-11-07T14:34:50.994Z,101246.79
2017-11-07T14:37:17.910Z,101250.98
2017-11-07T14:39:45.970Z,101249.77
2017-11-07T14:42:12.867Z,101245.28
2017-11-07T14:44:40.632Z,101247.78
2017-11-07T14:47:08.248Z,101248.34
2017-11-07T14:49:35.082Z,101246.08
2017-11-07T14:52:02.069Z,101245.39
2017-11-07T14:54:29.087Z,101236.37
2017-11-07T14:56:56.144Z,101243.45
2017-11-07T14:59:23.534Z,101237.27
2017-11-07T15:01:50.501Z,101238.00
2017-11-07T15:04:19.093Z,101238.56
2017-11-07T15:06:50.662Z,101241.45
2017-11-07T15:09:20.110Z,101231.16
2017-11-07T15:11:48.334Z,101233.73
2017-11-07T15:14:15.274Z,101232.73
2017-11-07T15:16:46.634Z,101230.88
2017-11-07T15:19:13.623Z,101228.09
2017-11-07T15:21:46.575Z,101226.73
2017-11-07T15:24:16.898Z,101214.27
2017-11-07T15:26:43.840Z,101219.08
2017-11-07T15:29:10.796Z,101204.13
2017-11-07T15:31:43.486Z,101202.05
2017-11-07T15:34:10.918Z,101199.05
2017-11-07T15:36:38.796Z,101199.72
2017-11-07T15:39:06.616Z,101193.72
2017-11-07T15:41:33.672Z,101199.17
2017-11-07T15:44:06.915Z,101199.47
2017-11-07T15:46:39.500Z,101201.67
2017-11-07T15:49:06.468Z,101202.29
2017-11-07T15:51:33.384Z,101205.36
2017-11-07T15:54:02.173Z,101204.91
2017-11-07T15:56:30.672Z,101209.35
2017-11-07T15:58:58.786Z,101207.11
2017-11-07T16:01:30.454Z,101207.86
2017-11-07T16:03:59.390Z,101214.56
2017-11-07T16:06:29.372Z,101201.03
2017-11-07T16:11:42.105Z,101205.61
2017-11-07T16:16:47.941Z,101197.46
2017-11-07T16:19:15.535Z,101202.36
2017-11-07T16:21:44.460Z,101200.72
2017-11-07T16:24:19.610Z,101200.47
2017-11-07T16:26:51.157Z,101197.33
2017-11-07T16:29:26.034Z,101198.52
2017-11-07T16:31:54.083Z,101200.03
2017-11-07T16:34:24.884Z,101199.84
2017-11-07T16:36:59.772Z,101198.72
2017-11-07T16:39:28.199Z,101195.75
2017-11-07T16:42:06.034Z,101193.97
2017-11-07T16:44:33.425Z,101192.70
2017-11-07T16:47:00.269Z,101192.34
2017-11-07T16:49:35.690Z,101192.15
2017-11-07T16:52:03.807Z,101194.09
2017-11-07T16:54:33.041Z,101195.84
2017-11-07T16:56:59.869Z,101189.39
2017-11-07T16:59:29.749Z,101192.97
2017-11-07T17:01:56.836Z,101195.47
2017-11-07T17:04:24.509Z,101190.97
2017-11-07T17:06:52.216Z,101190.78
2017-11-07T17:09:24.399Z,101191.97
2017-11-07T17:11:56.480Z,101192.13
2017-11-07T17:14:24.539Z,101188.31
2017-11-07T17:16:53.488Z,101189.89
2017-11-07T17:19:20.305Z,101184.06
2017-11-07T17:21:51.505Z,101181.64
2017-11-07T17:24:19.676Z,101185.52
2017-11-07T17:26:47.043Z,101179.33
2017-11-07T17:29:14.893Z,101186.71
2017-11-07T17:31:51.162Z,101178.70
2017-11-07T17:34:24.053Z,101176.13
2017-11-07T17:36:51.100Z,101171.43
2017-11-07T17:39:23.529Z,101169.86
2017-11-07T17:41:54.710Z,101178.00
2017-11-07T17:44:22.186Z,101169.02
2017-11-07T17:46:50.391Z,101165.97
2017-11-07T17:49:17.324Z,101160.41
2017-11-07T17:51:54.328Z,101159.03
2017-11-07T17:54:22.214Z,101154.56
2017-11-07T17:56:49.194Z,101155.06
2017-11-07T17:59:16.101Z,101153.13
2017-11-07T18:01:44.435Z,101155.94
2017-11-07T18:04:14.071Z,101154.84
2017-11-07T18:06:47.291Z,101155.08
2017-11-07T18:09:21.212Z,101153.25
2017-11-07T18:11:51.794Z,101155.22
2017-11-07T18:14:21.355Z,101150.25
2017-11-07T18:16:51.476Z,101149.39
2017-11-07T18:19:18.552Z,101149.44
2017-11-07T18:21:45.848Z,101154.41
2017-11-07T18:24:12.973Z,101145.32
2017-11-07T18:26:40.240Z,101142.16
2017-11-07T18:29:07.211Z,101141.30
2017-11-07T18:31:35.099Z,101139.33
2017-11-07T18:34:03.357Z,101138.29
2017-11-07T18:36:33.095Z,101141.30
2017-11-07T18:39:00.959Z,101135.69
2017-11-07T18:41:28.282Z,101134.95
2017-11-07T18:43:56.488Z,101135.41
2017-11-07T18:46:28.332Z,101129.02
2017-11-07T18:48:55.779Z,101124.89
2017-11-07T18:51:31.117Z,101128.72
2017-11-07T18:53:58.871Z,101125.95
2017-11-07T18:56:27.101Z,101130.03
2017-11-07T18:58:56.172Z,101119.40
2017-11-07T19:01:25.437Z,101119.25
2017-11-07T19:03:53.187Z,101111.64
2017-11-07T19:06:20.085Z,101113.41
2017-11-07T19:08:51.137Z,101111.22
2017-11-07T19:11:19.048Z,101102.89
2017-11-07T19:13:46.021Z,101111.87
2017-11-07T19:16:13.374Z,101109.02
2017-11-07T19:18:40.505Z,101109.45
2017-11-07T19:21:08.879Z,101110.17
2017-11-07T19:23:37.848Z,101115.59
2017-11-07T19:26:07.138Z,101114.38
2017-11-07T19:28:39.005Z,101119.95
2017-11-07T19:31:09.290Z,101116.60
2017-11-07T19:33:36.873Z,101118.05
2017-11-07T19:36:04.560Z,101113.30
2017-11-07T19:38:37.751Z,101105.05
2017-11-07T19:41:09.918Z,101105.77
2017-11-07T19:43:38.496Z,101103.58
2017-11-07T19:46:07.177Z,101101.09
2017-11-07T19:48:35.800Z,101102.50
2017-11-07T19:51:03.178Z,101089.77
2017-11-07T19:53:34.196Z,101088.56
2017-11-07T19:56:05.791Z,101085.41
2017-11-07T19:58:34.304Z,101087.72
2017-11-07T20:01:07.691Z,101087.59
2017-11-07T20:03:42.728Z,101086.08
2017-11-07T20:06:11.006Z,101083.77
2017-11-07T20:08:38.820Z,101081.83
2017-11-07T20:11:07.673Z,101086.11
2017-11-07T20:13:38.026Z,101080.66
2017-11-07T20:16:20.843Z,101081.66
2017-11-07T20:18:53.257Z,101079.05
2017-11-07T20:21:21.016Z,101082.67
2017-11-07T20:23:54.089Z,101074.50
2017-11-07T20:26:22.752Z,101069.50
2017-11-07T20:28:51.777Z,101074.07
2017-11-07T20:31:24.697Z,101069.98
2017-11-07T20:33:53.584Z,101071.48
2017-11-07T20:36:22.226Z,101067.87
2017-11-07T20:38:56.724Z,101069.05
2017-11-07T20:41:24.775Z,101069.88
2017-11-07T20:43:56.395Z,101072.50
2017-11-07T20:46:32.954Z,101068.74
2017-11-07T20:49:02.382Z,101064.09
2017-11-07T20:51:31.688Z,101060.25
2017-11-07T20:54:01.393Z,101061.52
2017-11-07T20:56:28.957Z,101060.83
2017-11-07T20:58:56.165Z,101052.34
2017-11-07T21:01:25.008Z,101053.06
2017-11-07T21:03:57.534Z,101064.95
2017-11-07T21:06:25.701Z,101056.08
2017-11-07T21:08:58.637Z,101060.20
2017-11-07T21:11:31.177Z,101058.17
2017-11-07T21:13:59.105Z,101058.62
2017-11-07T21:16:26.125Z,101052.39
2017-11-07T21:18:53.961Z,101041.38
2017-11-07T21:21:21.284Z,101036.45
2017-11-07T21:23:49.401Z,101041.06
2017-11-07T21:26:17.338Z,101043.83
2017-11-07T21:28:47.715Z,101030.24
2017-11-07T21:31:15.472Z,101036.03
2017-11-07T21:33:42.988Z,101038.31
2017-11-07T21:36:10.657Z,101040.33
2017-11-07T21:38:43.493Z,101046.09
2017-11-07T21:41:15.735Z,101027.50
2017-11-07T21:43:43.777Z,101031.48
2017-11-07T21:46:16.434Z,101025.00
2017-11-07T21:48:45.492Z,101020.85
2017-11-07T21:51:12.650Z,101029.22
2017-11-07T21:53:42.759Z,101030.02
2017-11-07T21:56:12.168Z,101027.63
2017-11-07T21:58:40.171Z,101017.39
2017-11-07T22:01:12.142Z,101023.23
2017-11-07T22:03:40.258Z,101016.19
2017-11-07T22:06:07.190Z,101025.27
2017-11-07T22:08:34.940Z,101027.20
2017-11-07T22:11:04.436Z,101020.07
2017-11-07T22:16:18.110Z,101024.34
2017-11-07T22:18:47.149Z,101028.23
2017-11-07T22:21:17.393Z,101024.38
2017-11-07T22:23:45.115Z,101029.98
2017-11-07T22:26:13.079Z,101026.30
2017-11-07T22:28:40.117Z,101027.61
2017-11-07T22:31:06.965Z,101020.89
2017-11-07T22:33:34.057Z,101027.50
2017-11-07T22:36:06.224Z,101019.98
2017-11-07T22:38:39.272Z,101020.84
2017-11-07T22:41:11.561Z,101011.84
2017-11-07T22:43:39.634Z,101016.93
2017-11-07T22:46:07.677Z,101016.00
2017-11-07T22:48:34.579Z,101014.76
2017-11-07T22:51:08.994Z,101009.00
2017-11-07T22:53:36.034Z,101000.58
2017-11-07T22:56:03.296Z,100993.98
2017-11-07T22:58:30.233Z,101002.52
2017-11-07T23:01:00.260Z,101003.89
2017-11-07T23:03:28.965Z,101001.78
2017-11-07T23:05:59.996Z,100997.20
2017-11-07T23:08:27.001Z,100990.16
2017-11-07T23:10:54.753Z,100992.20
2017-11-07T23:13:21.790Z,100994.16
2017-11-07T23:15:49.111Z,100987.11
2017-11-07T23:18:21.306Z,100982.17
2017-11-07T23:20:48.488Z,100984.09
2017-11-07T23:23:20.017Z,100986.87
2017-11-07T23:25:46.930Z,100977.50
2017-11-07T23:28:13.754Z,100976.27
2017-11-07T23:30:42.493Z,100977.16
2017-11-07T23:33:09.699Z,100984.95
2017-11-07T23:35:42.204Z,100981.02
2017-11-07T23:38:12.403Z,100983.59
2017-11-07T23:40:45.529Z,100992.95
2017-11-07T23:43:12.346Z,100986.41
2017-11-07T23:45:39.196Z,100984.78
2017-11-07T23:48:07.004Z,100982.43
2017-11-07T23:50:33.920Z,100981.48
2017-11-07T23:53:00.976Z,100974.50
2017-11-07T23:55:28.348Z,100979.08
2017-11-07T23:58:00.459Z,100980.42
